createdAt,value
2024-03-23T00:01:19.609Z,9.47
2024-03-23T00:03:51.413Z,9.45
2024-03-23T00:06:22.594Z,9.44
2024-03-23T00:08:54.343Z,9.41
2024-03-23T00:11:25.737Z,9.38
2024-03-23T00:13:58.506Z,9.36
2024-03-23T00:16:30.216Z,9.32
2024-03-23T00:19:01.977Z,9.30
2024-03-23T00:21:33.229Z,9.26
2024-03-23T00:24:04.750Z,9.21
2024-03-23T00:26:35.918Z,9.18
2024-03-23T00:29:07.756Z,9.14
2024-03-23T00:31:39.131Z,9.11
2024-03-23T00:34:10.379Z,9.10
2024-03-23T00:36:41.783Z,9.07
2024-03-23T00:39:13.041Z,9.04
2024-03-23T00:41:44.218Z,9.01
2024-03-23T00:44:16.141Z,9.00
2024-03-23T00:46:47.293Z,8.97
2024-03-23T00:49:18.898Z,8.95
2024-03-23T00:51:50.070Z,8.94
2024-03-23T00:54:21.737Z,8.93
2024-03-23T00:56:53.052Z,8.91
2024-03-23T00:59:28.350Z,8.89
2024-03-23T01:01:59.513Z,8.88
2024-03-23T01:04:30.930Z,8.86
2024-03-23T01:07:02.543Z,8.83
2024-03-23T01:09:34.362Z,8.81
2024-03-23T01:12:06.958Z,8.80
2024-03-23T01:14:38.487Z,8.78
2024-03-23T01:17:09.680Z,8.77
2024-03-23T01:19:42.471Z,8.77
2024-03-23T01:22:13.670Z,8.75
2024-03-23T01:24:45.173Z,8.74
2024-03-23T01:27:16.607Z,8.74
2024-03-23T01:29:47.785Z,8.72
2024-03-23T01:32:26.358Z,8.71
2024-03-23T01:34:57.781Z,8.70
2024-03-23T01:37:29.061Z,8.69
2024-03-23T01:40:00.792Z,8.68
2024-03-23T01:42:32.175Z,8.66
2024-03-23T01:45:05.226Z,8.63
2024-03-23T01:47:36.431Z,8.61
2024-03-23T01:50:11.964Z,8.58
2024-03-23T01:52:43.215Z,8.58
2024-03-23T01:55:14.949Z,8.56
2024-03-23T01:57:46.420Z,8.56
2024-03-23T02:00:18.755Z,8.56
2024-03-23T02:02:50.338Z,8.56
2024-03-23T02:05:21.698Z,8.56
2024-03-23T02:07:54.479Z,8.55
2024-03-23T02:10:25.994Z,8.56
2024-03-23T02:12:57.177Z,8.55
2024-03-23T02:15:28.859Z,8.55
2024-03-23T02:18:00.022Z,8.54
2024-03-23T02:20:31.585Z,8.55
2024-03-23T02:23:02.845Z,8.56
2024-03-23T02:25:34.345Z,8.55
2024-03-23T02:28:06.328Z,8.56
2024-03-23T02:30:37.954Z,8.58
2024-03-23T02:33:09.245Z,8.58
2024-03-23T02:35:40.871Z,8.57
2024-03-23T02:38:12.313Z,8.58
2024-03-23T02:40:43.546Z,8.60
2024-03-23T02:43:14.760Z,8.60
2024-03-23T02:45:46.312Z,8.58
2024-03-23T02:48:17.466Z,8.57
2024-03-23T02:50:48.945Z,8.56
2024-03-23T02:53:20.147Z,8.56
2024-03-23T02:55:51.612Z,8.58
2024-03-23T02:58:22.830Z,8.58
2024-03-23T03:00:54.326Z,8.57
2024-03-23T03:03:25.656Z,8.58
2024-03-23T03:05:59.552Z,8.60
2024-03-23T03:08:30.974Z,8.61
2024-03-23T03:11:02.273Z,8.61
2024-03-23T03:13:33.610Z,8.62
2024-03-23T03:16:05.983Z,8.63
2024-03-23T03:18:37.193Z,8.65
2024-03-23T03:21:11.964Z,8.65
2024-03-23T03:23:43.930Z,8.64
2024-03-23T03:26:15.538Z,8.65
2024-03-23T03:28:49.817Z,8.65
2024-03-23T03:31:21.666Z,8.64
2024-03-23T03:33:53.230Z,8.64
2024-03-23T03:36:24.936Z,8.64
2024-03-23T03:38:56.315Z,8.65
2024-03-23T03:41:27.700Z,8.64
2024-03-23T03:44:02.681Z,8.66
2024-03-23T03:46:34.381Z,8.66
2024-03-23T03:49:06.081Z,8.68
2024-03-23T03:51:37.439Z,8.65
2024-03-23T03:54:08.616Z,8.64
2024-03-23T03:56:40.363Z,8.66
2024-03-23T03:59:11.895Z,8.65
2024-03-23T04:01:43.997Z,8.65
2024-03-23T04:04:17.658Z,8.64
2024-03-23T04:06:48.831Z,8.65
2024-03-23T04:09:20.021Z,8.65
2024-03-23T04:11:51.235Z,8.66
2024-03-23T04:14:22.748Z,8.66
2024-03-23T04:16:54.328Z,8.67
2024-03-23T04:19:25.715Z,8.67
2024-03-23T04:21:57.104Z,8.69
2024-03-23T04:24:28.381Z,8.69
2024-03-23T04:26:59.816Z,8.69
2024-03-23T04:29:32.297Z,8.71
2024-03-23T04:32:03.840Z,8.73
2024-03-23T04:34:35.203Z,8.75
2024-03-23T04:37:06.863Z,8.78
2024-03-23T04:39:39.032Z,8.79
2024-03-23T04:42:10.649Z,8.79
2024-03-23T04:44:42.117Z,8.81
2024-03-23T04:47:13.605Z,8.80
2024-03-23T04:49:45.016Z,8.80
2024-03-23T04:52:16.784Z,8.79
2024-03-23T04:54:48.374Z,8.81
2024-03-23T04:57:19.624Z,8.82
2024-03-23T04:59:50.877Z,8.82
2024-03-23T05:02:22.331Z,8.82
2024-03-23T05:04:53.472Z,8.84
2024-03-23T05:07:25.174Z,8.85
2024-03-23T05:09:56.464Z,8.86
2024-03-23T05:12:27.802Z,8.86
2024-03-23T05:14:59.064Z,8.85
2024-03-23T05:17:30.616Z,8.85
2024-03-23T05:20:02.226Z,8.85
2024-03-23T05:22:33.575Z,8.86
2024-03-23T05:25:05.942Z,8.85
2024-03-23T05:27:37.451Z,8.86
2024-03-23T05:30:12.102Z,8.86
2024-03-23T05:32:43.873Z,8.85
2024-03-23T05:35:15.844Z,8.86
2024-03-23T05:37:47.420Z,8.85
2024-03-23T05:40:19.224Z,8.85
2024-03-23T05:42:53.848Z,8.86
2024-03-23T05:45:25.271Z,8.87
2024-03-23T05:47:57.928Z,8.87
2024-03-23T05:50:29.210Z,8.90
2024-03-23T05:53:00.470Z,8.89
2024-03-23T05:55:32.196Z,8.88
2024-03-23T05:58:03.812Z,8.90
2024-03-23T06:00:35.223Z,8.89
2024-03-23T06:03:07.172Z,8.91
2024-03-23T06:05:38.432Z,8.90
2024-03-23T06:08:11.033Z,8.90
2024-03-23T06:10:42.459Z,8.89
2024-03-23T06:13:15.540Z,8.89
2024-03-23T06:15:47.826Z,8.89
2024-03-23T06:18:19.483Z,8.89
2024-03-23T06:20:50.773Z,8.89
2024-03-23T06:23:23.821Z,8.90
2024-03-23T06:25:54.958Z,8.90
2024-03-23T06:28:26.384Z,8.92
2024-03-23T06:30:57.636Z,8.93
2024-03-23T06:33:29.812Z,8.95
2024-03-23T06:36:01.245Z,8.97
2024-03-23T06:38:32.700Z,8.98
2024-03-23T06:41:06.049Z,9.00
2024-03-23T06:43:37.653Z,9.01
2024-03-23T06:46:08.917Z,9.00
2024-03-23T06:48:40.148Z,9.01
2024-03-23T06:51:11.346Z,9.03
2024-03-23T06:53:42.739Z,9.02
2024-03-23T06:56:16.157Z,9.05
2024-03-23T06:58:47.899Z,9.04
2024-03-23T07:01:19.236Z,9.04
2024-03-23T07:03:50.766Z,9.06
2024-03-23T07:06:24.811Z,9.08
2024-03-23T07:08:56.911Z,9.08
2024-03-23T07:11:28.394Z,9.11
2024-03-23T07:13:59.721Z,9.11
2024-03-23T07:16:31.527Z,9.11
2024-03-23T07:19:03.282Z,9.11
2024-03-23T07:21:34.529Z,9.11
2024-03-23T07:24:06.375Z,9.12
2024-03-23T07:26:38.600Z,9.12
2024-03-23T07:29:10.297Z,9.12
2024-03-23T07:31:42.675Z,9.13
2024-03-23T07:34:14.738Z,9.13
2024-03-23T07:36:46.301Z,9.14
2024-03-23T07:39:18.002Z,9.14
2024-03-23T07:41:49.269Z,9.12
2024-03-23T07:44:20.953Z,9.12
2024-03-23T07:46:52.448Z,9.10
2024-03-23T07:49:24.109Z,9.08
2024-03-23T07:51:55.409Z,9.04
2024-03-23T07:54:26.973Z,9.02
2024-03-23T07:56:58.183Z,9.01
2024-03-23T07:59:33.036Z,9.00
2024-03-23T08:02:05.015Z,8.99
2024-03-23T08:04:36.436Z,9.00
2024-03-23T08:07:07.904Z,9.00
2024-03-23T08:09:39.338Z,9.02
2024-03-23T08:12:10.991Z,9.07
2024-03-23T08:14:42.491Z,9.12
2024-03-23T08:17:13.692Z,9.16
2024-03-23T08:19:45.228Z,9.20
2024-03-23T08:22:16.499Z,9.23
2024-03-23T08:24:48.015Z,9.24
2024-03-23T08:27:19.529Z,9.27
2024-03-23T08:29:51.317Z,9.31
2024-03-23T08:32:22.653Z,9.34
2024-03-23T08:34:54.379Z,9.37
2024-03-23T08:37:26.096Z,9.39
2024-03-23T08:39:57.622Z,9.42
2024-03-23T08:42:28.861Z,9.44
2024-03-23T08:45:00.304Z,9.45
2024-03-23T08:47:31.831Z,9.48
2024-03-23T08:50:03.612Z,9.54
2024-03-23T08:52:34.791Z,9.61
2024-03-23T08:55:07.728Z,9.69
2024-03-23T08:57:38.975Z,9.78
2024-03-23T09:00:12.564Z,9.89
2024-03-23T09:02:43.839Z,10.04
2024-03-23T09:05:15.887Z,10.21
2024-03-23T09:07:47.215Z,10.34
2024-03-23T09:10:19.018Z,10.43
2024-03-23T09:12:50.295Z,10.52
2024-03-23T09:15:21.682Z,10.58
2024-03-23T09:17:53.132Z,10.64
2024-03-23T09:20:24.816Z,10.72
2024-03-23T09:22:56.531Z,10.83
2024-03-23T09:25:28.077Z,10.94
2024-03-23T09:27:59.362Z,11.04
2024-03-23T09:30:30.864Z,11.22
2024-03-23T09:33:02.361Z,11.47
2024-03-23T09:35:33.735Z,11.68
2024-03-23T09:38:05.153Z,11.85
2024-03-23T09:40:36.926Z,11.95
2024-03-23T09:43:09.889Z,12.02
2024-03-23T09:45:42.650Z,12.04
2024-03-23T09:48:14.233Z,12.00
2024-03-23T09:50:47.245Z,12.02
2024-03-23T09:53:18.590Z,12.01
2024-03-23T09:55:50.266Z,12.04
2024-03-23T09:58:22.307Z,12.09
2024-03-23T10:00:53.752Z,12.16
2024-03-23T10:03:25.102Z,12.25
2024-03-23T10:06:06.110Z,12.36
2024-03-23T10:08:38.755Z,12.48
2024-03-23T10:11:17.649Z,12.65
2024-03-23T10:13:48.990Z,12.97
2024-03-23T10:16:27.965Z,13.32
2024-03-23T10:18:59.503Z,13.71
2024-03-23T10:21:31.008Z,14.06
2024-03-23T10:24:11.621Z,14.45
2024-03-23T10:26:42.899Z,14.80
2024-03-23T10:29:14.169Z,15.17
2024-03-23T10:31:48.737Z,15.53
2024-03-23T10:34:20.024Z,15.87
2024-03-23T10:36:53.329Z,16.18
2024-03-23T10:39:25.010Z,16.39
2024-03-23T10:41:56.807Z,16.48
2024-03-23T10:44:30.310Z,16.56
2024-03-23T10:47:02.751Z,16.71
2024-03-23T10:49:35.139Z,16.90
2024-03-23T10:52:08.194Z,17.04
2024-03-23T10:54:39.704Z,17.12
2024-03-23T10:57:13.343Z,17.22
2024-03-23T10:59:45.163Z,17.26
2024-03-23T11:02:22.696Z,17.38
2024-03-23T11:04:54.347Z,17.33
2024-03-23T11:07:35.217Z,17.32
2024-03-23T11:10:31.123Z,17.40
2024-03-23T11:13:25.507Z,17.43
2024-03-23T11:15:56.682Z,17.31
2024-03-23T11:18:28.098Z,17.40
2024-03-23T11:20:59.419Z,17.59
2024-03-23T11:23:32.011Z,17.80
2024-03-23T11:26:05.211Z,18.01
2024-03-23T11:28:36.806Z,18.20
2024-03-23T11:31:13.962Z,18.39
2024-03-23T11:33:45.478Z,18.57
2024-03-23T11:36:23.455Z,18.75
2024-03-23T11:38:55.223Z,18.88
2024-03-23T11:41:26.566Z,18.86
2024-03-23T11:43:58.258Z,18.73
2024-03-23T11:46:29.912Z,18.56
2024-03-23T11:49:01.307Z,18.39
2024-03-23T11:51:35.975Z,18.24
2024-03-23T11:54:12.261Z,18.16
2024-03-23T11:56:43.652Z,18.08
2024-03-23T11:59:15.135Z,17.95
2024-03-23T12:01:49.349Z,17.77
2024-03-23T12:04:30.090Z,17.60
2024-03-23T12:07:15.027Z,17.46
2024-03-23T12:09:47.159Z,17.34
2024-03-23T12:12:19.624Z,17.28
2024-03-23T12:15:07.002Z,17.22
2024-03-23T12:17:38.254Z,17.12
2024-03-23T12:20:10.850Z,17.07
2024-03-23T12:22:42.129Z,17.07
2024-03-23T12:25:13.530Z,17.04
2024-03-23T12:27:44.788Z,17.00
2024-03-23T12:30:17.062Z,17.05
2024-03-23T12:32:48.308Z,16.95
2024-03-23T12:35:19.621Z,16.87
2024-03-23T12:37:50.890Z,16.82
2024-03-23T12:40:22.327Z,16.77
2024-03-23T12:42:53.618Z,16.71
2024-03-23T12:45:24.892Z,16.61
2024-03-23T12:47:56.453Z,16.55
2024-03-23T12:50:27.949Z,16.48
2024-03-23T12:52:59.163Z,16.37
2024-03-23T12:55:30.497Z,16.27
2024-03-23T12:58:01.715Z,16.17
2024-03-23T13:00:33.287Z,16.05
2024-03-23T13:03:05.655Z,15.97
2024-03-23T13:05:37.136Z,15.89
2024-03-23T13:08:09.401Z,15.82
2024-03-23T13:10:40.726Z,15.79
2024-03-23T13:13:11.939Z,15.76
2024-03-23T13:15:43.229Z,15.74
2024-03-23T13:18:14.393Z,15.72
2024-03-23T13:20:45.756Z,15.72
2024-03-23T13:23:17.095Z,15.71
2024-03-23T13:25:54.196Z,15.70
2024-03-23T13:28:25.678Z,15.68
2024-03-23T13:30:58.748Z,15.65
2024-03-23T13:33:29.933Z,15.62
2024-03-23T13:36:01.475Z,15.60
2024-03-23T13:38:32.677Z,15.59
2024-03-23T13:41:05.362Z,15.58
2024-03-23T13:43:36.580Z,15.56
2024-03-23T13:46:07.875Z,15.55
2024-03-23T13:48:39.101Z,15.55
2024-03-23T13:51:12.053Z,15.55
2024-03-23T13:53:43.351Z,15.56
2024-03-23T13:56:16.198Z,15.54
2024-03-23T13:58:48.103Z,15.52
2024-03-23T14:01:19.705Z,15.49
2024-03-23T14:03:50.974Z,15.48
2024-03-23T14:06:22.299Z,15.46
2024-03-23T14:08:53.501Z,15.44
2024-03-23T14:11:26.963Z,15.42
2024-03-23T14:13:58.353Z,15.41
2024-03-23T14:16:30.025Z,15.38
2024-03-23T14:19:01.673Z,15.36
2024-03-23T14:21:33.215Z,15.33
2024-03-23T14:24:05.362Z,15.29
2024-03-23T14:26:36.876Z,15.26
2024-03-23T14:29:09.095Z,15.23
2024-03-23T14:31:40.244Z,15.20
2024-03-23T14:34:11.771Z,15.17
2024-03-23T14:36:43.569Z,15.15
2024-03-23T14:39:15.017Z,15.13
2024-03-23T14:41:46.941Z,15.11
2024-03-23T14:44:18.137Z,15.09
2024-03-23T14:46:49.458Z,15.09
2024-03-23T14:49:21.366Z,15.10
2024-03-23T14:51:53.047Z,15.09
2024-03-23T14:54:25.569Z,15.08
2024-03-23T14:56:57.331Z,15.07
2024-03-23T14:59:28.639Z,15.05
2024-03-23T15:02:00.689Z,15.03
2024-03-23T15:04:31.989Z,15.00
2024-03-23T15:07:03.683Z,14.97
2024-03-23T15:09:34.867Z,14.91
2024-03-23T15:12:08.502Z,14.82
2024-03-23T15:14:39.861Z,14.72
2024-03-23T15:17:11.048Z,14.58
2024-03-23T15:19:43.611Z,14.40
2024-03-23T15:22:15.085Z,14.23
2024-03-23T15:24:46.345Z,14.04
2024-03-23T15:27:17.873Z,13.80
2024-03-23T15:29:49.389Z,13.52
2024-03-23T15:32:20.796Z,13.21
2024-03-23T15:34:53.153Z,12.95
2024-03-23T15:37:24.417Z,12.72
2024-03-23T15:39:55.826Z,12.54
2024-03-23T15:42:27.255Z,12.39
2024-03-23T15:44:58.451Z,12.25
2024-03-23T15:47:30.192Z,12.10
2024-03-23T15:50:01.424Z,12.01
2024-03-23T15:52:32.721Z,11.92
2024-03-23T15:55:06.975Z,11.82
2024-03-23T15:57:38.395Z,11.72
2024-03-23T16:00:12.209Z,11.64
2024-03-23T16:02:44.041Z,11.61
2024-03-23T16:05:15.666Z,11.60
2024-03-23T16:07:47.140Z,11.57
2024-03-23T16:10:19.750Z,11.54
2024-03-23T16:12:51.000Z,11.52
2024-03-23T16:15:22.277Z,11.48
2024-03-23T16:17:55.073Z,11.45
2024-03-23T16:20:26.842Z,11.43
2024-03-23T16:22:59.134Z,11.38
2024-03-23T16:25:31.303Z,11.33
2024-03-23T16:28:02.609Z,11.30
2024-03-23T16:30:33.791Z,11.29
2024-03-23T16:33:05.292Z,11.27
2024-03-23T16:35:36.712Z,11.25
2024-03-23T16:38:08.072Z,11.23
2024-03-23T16:40:39.457Z,11.19
2024-03-23T16:43:10.958Z,11.15
2024-03-23T16:45:42.140Z,11.14
2024-03-23T16:48:16.024Z,11.12
2024-03-23T16:50:47.334Z,11.11
2024-03-23T16:53:18.916Z,11.11
2024-03-23T16:55:55.994Z,11.11
2024-03-23T16:58:27.608Z,11.11
2024-03-23T17:00:59.409Z,11.10
2024-03-23T17:03:30.710Z,11.09
2024-03-23T17:06:02.443Z,11.08
2024-03-23T17:08:34.440Z,11.07
2024-03-23T17:11:06.709Z,11.05
2024-03-23T17:13:38.250Z,11.03
2024-03-23T17:16:11.978Z,11.02
2024-03-23T17:18:43.542Z,11.02
2024-03-23T17:21:15.289Z,10.99
2024-03-23T17:23:47.030Z,10.97
2024-03-23T17:26:20.886Z,10.95
2024-03-23T17:28:52.523Z,10.93
2024-03-23T17:31:24.102Z,10.89
2024-03-23T17:33:56.332Z,10.86
2024-03-23T17:36:29.354Z,10.83
2024-03-23T17:39:00.671Z,10.81
2024-03-23T17:41:32.270Z,10.79
2024-03-23T17:44:04.238Z,10.76
2024-03-23T17:46:35.493Z,10.74
2024-03-23T17:49:07.114Z,10.72
2024-03-23T17:51:38.822Z,10.70
2024-03-23T17:54:10.310Z,10.68
2024-03-23T17:56:41.898Z,10.67
2024-03-23T17:59:13.408Z,10.67
2024-03-23T18:01:44.813Z,10.65
2024-03-23T18:04:16.248Z,10.64
2024-03-23T18:06:48.476Z,10.63
2024-03-23T18:09:20.104Z,10.62
2024-03-23T18:11:51.706Z,10.60
2024-03-23T18:14:23.977Z,10.59
2024-03-23T18:16:55.486Z,10.57
2024-03-23T18:19:26.783Z,10.56
2024-03-23T18:21:58.255Z,10.54
2024-03-23T18:24:32.303Z,10.53
2024-03-23T18:27:04.848Z,10.51
2024-03-23T18:29:36.328Z,10.49
2024-03-23T18:32:08.910Z,10.47
2024-03-23T18:34:40.404Z,10.44
2024-03-23T18:37:11.672Z,10.41
2024-03-23T18:39:43.145Z,10.36
2024-03-23T18:42:14.414Z,10.33
2024-03-23T18:44:45.935Z,10.30
2024-03-23T18:47:17.291Z,10.23
2024-03-23T18:49:48.966Z,10.18
2024-03-23T18:52:22.688Z,10.02
2024-03-23T18:54:55.453Z,9.77
2024-03-23T18:57:26.790Z,9.52
2024-03-23T18:59:58.156Z,9.18
2024-03-23T19:02:30.192Z,8.89
2024-03-23T19:05:02.167Z,8.62
2024-03-23T19:07:33.482Z,8.37
2024-03-23T19:10:05.040Z,8.10
2024-03-23T19:12:36.602Z,7.82
2024-03-23T19:15:12.778Z,7.59
2024-03-23T19:17:45.057Z,7.40
2024-03-23T19:20:16.870Z,7.23
2024-03-23T19:22:48.090Z,7.09
2024-03-23T19:25:19.928Z,6.92
2024-03-23T19:27:51.147Z,6.72
2024-03-23T19:30:23.654Z,6.58
2024-03-23T19:32:56.569Z,6.42
2024-03-23T19:35:28.337Z,6.29
2024-03-23T19:37:59.554Z,6.17
2024-03-23T19:40:31.707Z,6.09
2024-03-23T19:43:03.119Z,6.01
2024-03-23T19:45:35.333Z,5.96
2024-03-23T19:48:10.500Z,5.93
2024-03-23T19:50:42.278Z,5.90
2024-03-23T19:53:13.524Z,5.85
2024-03-23T19:55:45.149Z,5.77
2024-03-23T19:58:16.320Z,5.68
2024-03-23T20:00:47.853Z,5.62
2024-03-23T20:03:19.092Z,5.55
2024-03-23T20:06:00.243Z,5.52
2024-03-23T20:08:31.794Z,5.44
2024-03-23T20:11:03.012Z,5.41
2024-03-23T20:13:34.237Z,5.38
2024-03-23T20:16:06.776Z,5.37
2024-03-23T20:18:38.118Z,5.37
2024-03-23T20:21:09.673Z,5.32
2024-03-23T20:23:40.884Z,5.27
2024-03-23T20:26:12.312Z,5.21
2024-03-23T20:28:43.574Z,5.17
2024-03-23T20:31:14.858Z,5.13
2024-03-23T20:33:48.982Z,5.17
2024-03-23T20:36:19.315Z,5.15
2024-03-23T20:38:50.565Z,5.13
2024-03-23T20:41:21.864Z,5.10
2024-03-23T20:43:53.042Z,5.08
2024-03-23T20:46:24.942Z,5.04
2024-03-23T20:48:56.432Z,5.02
2024-03-23T20:51:28.087Z,5.00
2024-03-23T20:53:59.404Z,4.96
2024-03-23T20:56:30.666Z,4.92
2024-03-23T20:59:02.132Z,4.90
2024-03-23T21:01:34.453Z,4.88
2024-03-23T21:04:06.355Z,4.87
2024-03-23T21:06:37.814Z,4.87
2024-03-23T21:09:09.258Z,4.88
2024-03-23T21:11:40.767Z,4.87
2024-03-23T21:14:12.049Z,4.85
2024-03-23T21:16:43.763Z,4.83
2024-03-23T21:19:15.130Z,4.82
2024-03-23T21:21:46.399Z,4.81
2024-03-23T21:24:18.128Z,4.81
2024-03-23T21:26:50.498Z,4.81
2024-03-23T21:29:21.775Z,4.82
2024-03-23T21:31:53.244Z,4.83
2024-03-23T21:34:24.696Z,4.81
2024-03-23T21:36:56.323Z,4.81
2024-03-23T21:39:27.510Z,4.77
2024-03-23T21:41:58.766Z,4.77
2024-03-23T21:44:30.016Z,4.77
2024-03-23T21:47:01.431Z,4.78
2024-03-23T21:49:32.660Z,4.78
2024-03-23T21:52:05.156Z,4.78
2024-03-23T21:54:36.332Z,4.77
2024-03-23T21:57:08.063Z,4.75
2024-03-23T21:59:39.740Z,4.74
2024-03-23T22:02:11.188Z,4.74
2024-03-23T22:04:42.526Z,4.74
2024-03-23T22:07:13.987Z,4.72
2024-03-23T22:09:45.247Z,4.72
2024-03-23T22:12:16.937Z,4.72
2024-03-23T22:14:48.232Z,4.73
2024-03-23T22:17:21.673Z,4.73
2024-03-23T22:19:52.826Z,4.73
2024-03-23T22:22:24.095Z,4.74
2024-03-23T22:24:55.546Z,4.75
2024-03-23T22:27:26.780Z,4.75
2024-03-23T22:29:58.059Z,4.76
2024-03-23T22:32:29.335Z,4.77
2024-03-23T22:35:00.794Z,4.76
2024-03-23T22:37:32.274Z,4.76
2024-03-23T22:40:03.562Z,4.75
2024-03-23T22:42:35.092Z,4.75
2024-03-23T22:45:07.876Z,4.75
2024-03-23T22:47:39.151Z,4.75
2024-03-23T22:50:11.596Z,4.76
2024-03-23T22:52:43.325Z,4.74
2024-03-23T22:55:14.602Z,4.73
2024-03-23T22:57:45.956Z,4.72
2024-03-23T23:00:19.660Z,4.70
2024-03-23T23:02:51.108Z,4.67
2024-03-23T23:05:22.525Z,4.66
2024-03-23T23:07:53.956Z,4.65
2024-03-23T23:10:25.821Z,4.66
2024-03-23T23:12:57.521Z,4.68
2024-03-23T23:15:28.929Z,4.68
2024-03-23T23:18:00.847Z,4.66
2024-03-23T23:20:32.124Z,4.66
2024-03-23T23:23:03.838Z,4.66
2024-03-23T23:25:35.393Z,4.66
2024-03-23T23:28:07.220Z,4.66
2024-03-23T23:30:38.653Z,4.67
2024-03-23T23:33:10.213Z,4.67
2024-03-23T23:35:41.498Z,4.68
2024-03-23T23:38:12.886Z,4.69
2024-03-23T23:40:44.355Z,4.69
2024-03-23T23:43:16.659Z,4.69
2024-03-23T23:45:48.512Z,4.67
2024-03-23T23:48:20.292Z,4.66
2024-03-23T23:50:51.592Z,4.68
2024-03-23T23:53:23.626Z,4.69
2024-03-23T23:55:55.265Z,4.70
2024-03-23T23:58:27.056Z,4.69
